Time;durP1;ratioP1;P1;durP2;ratioP2;P2;SDS_P1;SDS_P2;PMS_P1;PMS_P2;Temp;Humidity;BMP_temperature;BMP_pressure;BME280_temperature;BME280_humidity;BME280_pressure;Samples;Min_cycle;Max_cycle;Signal;HPM_P1;HPM_P2
2022/08/01 00:01:39;;;;;;;48.47;44.93;;;;;;;;;;5034667;28;20419;-94
2022/08/01 00:04:06;;;;;;;45.77;42.67;;;;;;;;;;5035888;28;20467;-95
2022/08/01 00:06:33;;;;;;;45.57;42.13;;;;;;;;;;5035884;28;20793;-94
2022/08/01 00:09:01;;;;;;;45.33;42.03;;;;;;;;;;5035478;28;20473;-94
2022/08/01 00:11:30;;;;;;;44.67;41.47;;;;;;;;;;5034435;28;20456;-94
2022/08/01 00:13:57;;;;;;;43.43;39.73;;;;;;;;;;5035544;28;20439;-93
2022/08/01 00:16:25;;;;;;;45.33;41.37;;;;;;;;;;5036054;28;20461;-93
2022/08/01 00:18:52;;;;;;;45.47;42.07;;;;;;;;;;5034462;28;20442;-93
2022/08/01 00:21:20;;;;;;;42.07;38.97;;;;;;;;;;5035565;28;20448;-94
2022/08/01 00:23:47;;;;;;;41.53;38.73;;;;;;;;;;5035314;28;20489;-94
2022/08/01 00:26:15;;;;;;;43.30;40.17;;;;;;;;;;5035053;28;20483;-94
2022/08/01 00:28:43;;;;;;;43.20;40.10;;;;;;;;;;5035195;28;20461;-95
2022/08/01 00:31:11;;;;;;;44.03;40.90;;;;;;;;;;5035429;28;20424;-93
2022/08/01 00:33:38;;;;;;;45.17;41.97;;;;;;;;;;5035101;28;20433;-94
2022/08/01 00:36:05;;;;;;;45.53;42.23;;;;;;;;;;5035048;28;20772;-92
2022/08/01 00:38:33;;;;;;;47.67;44.03;;;;;;;;;;5034492;28;20433;-92
2022/08/01 00:41:00;;;;;;;49.47;45.43;;;;;;;;;;5035138;28;20837;-92
2022/08/01 00:43:27;;;;;;;46.73;43.33;;;;;;;;;;5034766;28;20473;-91
2022/08/01 00:45:56;;;;;;;45.63;42.07;;;;;;;;;;5034616;28;20424;-92
2022/08/01 00:48:24;;;;;;;45.60;41.90;;;;;;;;;;5034531;28;20441;-89
2022/08/01 00:50:51;;;;;;;48.33;44.30;;;;;;;;;;5034824;28;20461;-91
2022/08/01 00:53:18;;;;;;;50.50;46.60;;;;;;;;;;5034476;28;20816;-92
2022/08/01 00:55:46;;;;;;;47.43;42.90;;;;;;;;;;5034501;28;20884;-92
2022/08/01 00:58:13;;;;;;;46.53;43.00;;;;;;;;;;5034644;28;20937;-92
2022/08/01 01:00:41;;;;;;;50.13;46.03;;;;;;;;;;5034590;28;20465;-92
2022/08/01 01:03:09;;;;;;;50.83;46.93;;;;;;;;;;5034741;28;21003;-91
2022/08/01 01:05:40;;;;;;;46.37;42.53;;;;;;;;;;5033381;28;20455;-92
2022/08/01 01:08:10;;;;;;;45.87;41.87;;;;;;;;;;5034450;28;20475;-92
2022/08/01 01:10:39;;;;;;;48.60;44.70;;;;;;;;;;5034326;28;20412;-92
2022/08/01 01:13:08;;;;;;;46.07;42.37;;;;;;;;;;5033340;28;20424;-92
2022/08/01 01:15:39;;;;;;;45.97;42.30;;;;;;;;;;5034422;28;20473;-92
2022/08/01 01:18:11;;;;;;;47.70;44.03;;;;;;;;;;5034496;28;20441;-92
2022/08/01 01:20:41;;;;;;;48.87;44.60;;;;;;;;;;5034692;28;20763;-92
2022/08/01 01:23:23;;;;;;;48.93;44.20;;;;;;;;;;5034315;28;20823;-92
2022/08/01 01:26:01;;;;;;;49.30;45.40;;;;;;;;;;5034092;28;20465;-93
2022/08/01 01:28:31;;;;;;;48.33;44.63;;;;;;;;;;5034002;28;20906;-92
2022/08/01 01:31:01;;;;;;;49.60;45.80;;;;;;;;;;5034204;28;20438;-93
2022/08/01 01:33:31;;;;;;;49.47;45.70;;;;;;;;;;5033203;28;20473;-92
2022/08/01 01:36:00;;;;;;;53.80;49.47;;;;;;;;;;5034742;28;20456;-93
2022/08/01 01:38:30;;;;;;;47.30;43.70;;;;;;;;;;5034338;28;20424;-92
2022/08/01 01:40:58;;;;;;;50.80;46.43;;;;;;;;;;5034323;28;20448;-91
2022/08/01 01:43:26;;;;;;;50.67;46.77;;;;;;;;;;5033952;28;20468;-92
2022/08/01 01:45:54;;;;;;;54.40;49.93;;;;;;;;;;5034021;28;20439;-92
2022/08/01 01:48:25;;;;;;;49.37;45.10;;;;;;;;;;5033306;28;20444;-93
2022/08/01 01:50:54;;;;;;;51.67;47.67;;;;;;;;;;5037692;28;20465;-94
2022/08/01 01:53:23;;;;;;;50.13;46.10;;;;;;;;;;5038058;28;20428;-93
2022/08/01 01:55:51;;;;;;;48.97;44.77;;;;;;;;;;5038013;28;20437;-93
2022/08/01 01:58:19;;;;;;;47.60;43.90;;;;;;;;;;5038221;28;20825;-94
2022/08/01 02:00:48;;;;;;;46.97;42.97;;;;;;;;;;5038014;28;20454;-94
2022/08/01 02:03:16;;;;;;;45.40;41.70;;;;;;;;;;5038067;28;20452;-93
2022/08/01 02:05:45;;;;;;;48.63;44.93;;;;;;;;;;5037552;28;20412;-94
2022/08/01 02:08:16;;;;;;;43.53;40.07;;;;;;;;;;5037845;28;20453;-94
2022/08/01 02:11:17;;;;;;;49.63;45.40;;;;;;;;;;5037847;28;20462;-93
2022/08/01 02:13:33;;;;;;;46.00;42.70;;;;;;;;;;5037249;28;20515;-94
2022/08/01 02:16:01;;;;;;;48.87;44.90;;;;;;;;;;5036543;28;20931;-93
2022/08/01 02:18:28;;;;;;;46.50;42.90;;;;;;;;;;5036454;28;20420;-94
2022/08/01 02:20:59;;;;;;;48.37;44.80;;;;;;;;;;5037811;28;20416;-94
2022/08/01 02:23:30;;;;;;;50.67;46.80;;;;;;;;;;5037513;28;20484;-94
2022/08/01 02:25:59;;;;;;;50.73;46.10;;;;;;;;;;5037325;28;20542;-94
2022/08/01 02:28:30;;;;;;;50.23;46.47;;;;;;;;;;5036752;28;20442;-93
2022/08/01 02:31:00;;;;;;;50.40;46.80;;;;;;;;;;5037341;28;20906;-93
2022/08/01 02:33:31;;;;;;;48.83;45.23;;;;;;;;;;5037599;28;20821;-93
2022/08/01 02:36:01;;;;;;;48.13;44.60;;;;;;;;;;5037100;28;20897;-93
2022/08/01 02:38:30;;;;;;;49.93;46.60;;;;;;;;;;5037068;28;20449;-93
2022/08/01 02:40:59;;;;;;;50.90;47.40;;;;;;;;;;5037353;28;20412;-93
2022/08/01 02:43:28;;;;;;;49.10;45.60;;;;;;;;;;5037094;28;20467;-93
2022/08/01 02:45:57;;;;;;;51.20;47.40;;;;;;;;;;5037355;28;20441;-93
2022/08/01 02:48:26;;;;;;;48.60;45.30;;;;;;;;;;5036240;28;20431;-93
2022/08/01 02:50:54;;;;;;;48.87;45.47;;;;;;;;;;5037166;28;20936;-93
2022/08/01 02:53:24;;;;;;;49.87;46.17;;;;;;;;;;5036957;28;20618;-93
2022/08/01 02:55:52;;;;;;;48.63;44.80;;;;;;;;;;5036690;28;20436;-93
2022/08/01 02:58:23;;;;;;;48.80;45.40;;;;;;;;;;5035763;28;20860;-92
2022/08/01 03:00:51;;;;;;;48.13;44.90;;;;;;;;;;5035405;28;20458;-93
2022/08/01 03:03:19;;;;;;;46.73;43.37;;;;;;;;;;5035712;28;20421;-92
2022/08/01 03:05:48;;;;;;;48.20;45.20;;;;;;;;;;5036977;28;20485;-93
2022/08/01 03:08:16;;;;;;;48.97;45.47;;;;;;;;;;5037023;28;20502;-93
2022/08/01 03:10:46;;;;;;;45.67;42.17;;;;;;;;;;5036806;28;20853;-93
2022/08/01 03:13:14;;;;;;;47.20;43.70;;;;;;;;;;5036931;28;20472;-93
2022/08/01 03:15:43;;;;;;;46.77;43.43;;;;;;;;;;5036976;28;20419;-93
2022/08/01 03:18:11;;;;;;;47.70;44.50;;;;;;;;;;5036499;28;20451;-92
2022/08/01 03:20:39;;;;;;;48.23;44.70;;;;;;;;;;5036556;28;20408;-92
2022/08/01 03:23:08;;;;;;;47.43;43.83;;;;;;;;;;5036576;28;20442;-92
2022/08/01 03:25:37;;;;;;;46.90;43.40;;;;;;;;;;5036205;28;20446;-92
2022/08/01 03:28:07;;;;;;;47.40;44.00;;;;;;;;;;5036411;28;20439;-93
2022/08/01 03:30:36;;;;;;;50.70;47.30;;;;;;;;;;5036192;28;20439;-92
2022/08/01 03:33:03;;;;;;;55.90;52.03;;;;;;;;;;5036530;28;20445;-93
2022/08/01 03:35:32;;;;;;;52.20;48.40;;;;;;;;;;5036514;28;20900;-92
2022/08/01 03:38:01;;;;;;;40.23;37.17;;;;;;;;;;5036613;28;20450;-93
2022/08/01 03:40:32;;;;;;;45.00;41.83;;;;;;;;;;5036701;28;20413;-92
2022/08/01 03:43:03;;;;;;;43.13;40.07;;;;;;;;;;5035067;28;20800;-93
2022/08/01 03:45:33;;;;;;;44.53;41.30;;;;;;;;;;5035052;28;20468;-93
2022/08/01 03:48:02;;;;;;;43.03;40.13;;;;;;;;;;5036309;28;20909;-92
2022/08/01 03:50:30;;;;;;;40.93;38.03;;;;;;;;;;5035782;28;20432;-92
2022/08/01 03:53:00;;;;;;;44.97;41.40;;;;;;;;;;5036591;28;20422;-93
2022/08/01 03:55:28;;;;;;;42.80;40.00;;;;;;;;;;5036230;28;20473;-92
2022/08/01 03:57:56;;;;;;;45.97;42.67;;;;;;;;;;5038827;28;20419;-92
2022/08/01 04:00:25;;;;;;;43.43;40.63;;;;;;;;;;5040556;28;20460;-91
2022/08/01 04:02:54;;;;;;;43.83;40.73;;;;;;;;;;5038104;28;20425;-92
2022/08/01 04:05:22;;;;;;;44.23;41.30;;;;;;;;;;5035926;28;20480;-92
2022/08/01 04:07:55;;;;;;;43.40;40.57;;;;;;;;;;5035969;28;20794;-92
2022/08/01 04:10:23;;;;;;;41.47;38.67;;;;;;;;;;5035492;28;21021;-92
2022/08/01 04:12:50;;;;;;;41.67;38.73;;;;;;;;;;5034967;28;20449;-92
2022/08/01 04:15:17;;;;;;;42.80;39.33;;;;;;;;;;5035379;28;20414;-92
2022/08/01 04:17:45;;;;;;;41.30;38.50;;;;;;;;;;5035661;28;20454;-92
2022/08/01 04:20:15;;;;;;;41.40;38.53;;;;;;;;;;5035531;28;20937;-91
2022/08/01 04:22:43;;;;;;;42.03;39.10;;;;;;;;;;5034402;28;20974;-92
2022/08/01 04:25:14;;;;;;;44.83;41.73;;;;;;;;;;5034462;28;20466;-93
2022/08/01 04:27:43;;;;;;;40.57;37.80;;;;;;;;;;5034973;28;20455;-87
2022/08/01 04:30:12;;;;;;;43.20;40.20;;;;;;;;;;5034781;28;20490;-87
2022/08/01 04:32:40;;;;;;;41.70;38.80;;;;;;;;;;5033588;28;20416;-87
2022/08/01 04:35:09;;;;;;;42.63;39.80;;;;;;;;;;5035732;28;20912;-92
2022/08/01 04:37:40;;;;;;;43.43;40.43;;;;;;;;;;5034026;28;20431;-92
2022/08/01 04:40:08;;;;;;;43.50;40.40;;;;;;;;;;5035473;28;20421;-87
2022/08/01 04:42:35;;;;;;;43.87;40.67;;;;;;;;;;5034489;28;20437;-87
2022/08/01 04:45:03;;;;;;;43.50;40.23;;;;;;;;;;5034833;28;21133;-87
2022/08/01 04:47:31;;;;;;;42.90;39.70;;;;;;;;;;5035295;28;20439;-91
2022/08/01 04:49:58;;;;;;;41.23;38.53;;;;;;;;;;5034765;28;20453;-91
2022/08/01 04:52:34;;;;;;;43.30;40.30;;;;;;;;;;5035266;28;20465;-91
2022/08/01 04:55:02;;;;;;;41.43;38.67;;;;;;;;;;5034408;28;20527;-87
2022/08/01 04:57:30;;;;;;;41.47;38.53;;;;;;;;;;5034611;28;20417;-87
2022/08/01 04:59:57;;;;;;;41.87;38.70;;;;;;;;;;5034339;28;21259;-91
2022/08/01 05:02:28;;;;;;;40.83;37.90;;;;;;;;;;5034536;28;20878;-91
2022/08/01 05:04:56;;;;;;;40.83;37.83;;;;;;;;;;5034383;28;20497;-91
2022/08/01 05:07:23;;;;;;;40.03;37.43;;;;;;;;;;5034703;28;20440;-86
2022/08/01 05:09:50;;;;;;;38.83;36.07;;;;;;;;;;5034195;28;20460;-87
2022/08/01 05:12:20;;;;;;;40.60;38.07;;;;;;;;;;5034477;28;20449;-87
2022/08/01 05:14:47;;;;;;;39.80;37.40;;;;;;;;;;5034063;28;20427;-87
2022/08/01 05:17:16;;;;;;;41.23;38.30;;;;;;;;;;5034270;28;20457;-87
2022/08/01 05:19:44;;;;;;;41.63;38.93;;;;;;;;;;5034100;28;20461;-87
2022/08/01 05:22:11;;;;;;;43.20;40.40;;;;;;;;;;5034146;28;20429;-87
2022/08/01 05:24:40;;;;;;;43.50;40.50;;;;;;;;;;5034176;28;20460;-87
2022/08/01 05:27:08;;;;;;;43.40;40.80;;;;;;;;;;5033751;28;20452;-87
2022/08/01 05:29:37;;;;;;;42.10;39.50;;;;;;;;;;5033910;28;20464;-86
2022/08/01 05:32:07;;;;;;;39.60;37.20;;;;;;;;;;5034208;28;20461;-87
2022/08/01 05:34:35;;;;;;;41.90;39.40;;;;;;;;;;5032516;28;20424;-87
2022/08/01 05:37:02;;;;;;;41.97;39.37;;;;;;;;;;5034240;28;20442;-92
2022/08/01 05:39:30;;;;;;;42.57;39.97;;;;;;;;;;5033795;28;20418;-91
2022/08/01 05:41:57;;;;;;;40.23;37.77;;;;;;;;;;5034455;28;20438;-89
2022/08/01 05:44:25;;;;;;;39.60;36.77;;;;;;;;;;5033998;28;20506;-86
2022/08/01 05:46:54;;;;;;;38.87;36.33;;;;;;;;;;5033838;28;20457;-87
2022/08/01 05:49:21;;;;;;;40.37;37.90;;;;;;;;;;5033806;28;20432;-89
2022/08/01 05:51:49;;;;;;;40.20;37.60;;;;;;;;;;5033720;28;20758;-92
2022/08/01 05:54:16;;;;;;;40.30;37.77;;;;;;;;;;5033790;28;20790;-91
2022/08/01 05:56:44;;;;;;;38.20;35.90;;;;;;;;;;5033789;28;20448;-88
2022/08/01 05:59:11;;;;;;;38.17;35.83;;;;;;;;;;5033899;28;20448;-88
2022/08/01 06:01:38;;;;;;;38.07;35.47;;;;;;;;;;5033892;28;20464;-88
2022/08/01 06:04:07;;;;;;;36.67;34.20;;;;;;;;;;5028041;28;20439;-87
2022/08/01 06:06:34;;;;;;;37.03;34.70;;;;;;;;;;5013939;28;20429;-88
2022/08/01 06:09:02;;;;;;;36.57;34.30;;;;;;;;;;5014059;28;20415;-87
2022/08/01 06:11:29;;;;;;;37.70;35.40;;;;;;;;;;5013842;28;20472;-87
2022/08/01 06:13:56;;;;;;;36.20;33.80;;;;;;;;;;5013996;28;20952;-88
2022/08/01 06:16:24;;;;;;;36.53;34.10;;;;;;;;;;5013028;28;20425;-88
2022/08/01 06:18:51;;;;;;;35.80;33.37;;;;;;;;;;5013549;28;20434;-87
2022/08/01 06:21:20;;;;;;;34.97;32.50;;;;;;;;;;5012968;28;20458;-85
2022/08/01 06:23:48;;;;;;;35.77;33.73;;;;;;;;;;5013635;28;20458;-87
2022/08/01 06:26:15;;;;;;;35.27;33.10;;;;;;;;;;5013515;28;20514;-87
2022/08/01 06:28:42;;;;;;;34.40;32.37;;;;;;;;;;5013657;28;20442;-87
2022/08/01 06:31:12;;;;;;;33.73;31.73;;;;;;;;;;5013973;28;20413;-87
2022/08/01 06:33:39;;;;;;;36.00;33.80;;;;;;;;;;5012617;28;20553;-86
2022/08/01 06:36:07;;;;;;;34.27;32.30;;;;;;;;;;5015594;28;20829;-87
2022/08/01 06:38:36;;;;;;;32.90;30.90;;;;;;;;;;5017406;28;20446;-87
2022/08/01 06:41:03;;;;;;;35.03;33.03;;;;;;;;;;5015917;28;20441;-87
2022/08/01 06:43:31;;;;;;;34.87;33.00;;;;;;;;;;5017302;28;20434;-87
2022/08/01 06:45:58;;;;;;;37.70;35.30;;;;;;;;;;5016778;28;20521;-87
2022/08/01 06:48:26;;;;;;;35.10;32.73;;;;;;;;;;5017193;28;20842;-86
2022/08/01 06:51:07;;;;;;;33.60;31.67;;;;;;;;;;5016874;28;20451;-87
2022/08/01 06:53:36;;;;;;;32.77;30.63;;;;;;;;;;5016957;28;20454;-85
2022/08/01 06:56:03;;;;;;;34.23;32.43;;;;;;;;;;5017140;28;20417;-91
2022/08/01 06:58:31;;;;;;;35.50;33.50;;;;;;;;;;5017108;28;20467;-91
2022/08/01 07:00:58;;;;;;;34.97;32.83;;;;;;;;;;5016871;28;20444;-86
2022/08/01 07:03:25;;;;;;;35.30;33.20;;;;;;;;;;5016300;28;20442;-80
2022/08/01 07:05:53;;;;;;;34.77;32.77;;;;;;;;;;5014658;28;20472;-80
2022/08/01 07:08:20;;;;;;;34.10;32.00;;;;;;;;;;5014340;28;20501;-80
2022/08/01 07:10:49;;;;;;;32.57;30.67;;;;;;;;;;5015025;28;20450;-80
2022/08/01 07:13:21;;;;;;;33.23;31.23;;;;;;;;;;5014872;28;20913;-79
2022/08/01 07:15:48;;;;;;;32.43;30.63;;;;;;;;;;5015015;28;20955;-77
2022/08/01 07:18:15;;;;;;;31.13;29.37;;;;;;;;;;5014142;28;20447;-77
2022/08/01 07:20:45;;;;;;;31.87;29.93;;;;;;;;;;5014356;28;20425;-79
2022/08/01 07:23:13;;;;;;;31.10;29.30;;;;;;;;;;5014403;28;20448;-79
2022/08/01 07:25:40;;;;;;;31.67;29.87;;;;;;;;;;5014506;28;20486;-79
2022/08/01 07:28:09;;;;;;;32.97;31.10;;;;;;;;;;5014395;28;21077;-78
2022/08/01 07:30:36;;;;;;;32.83;30.43;;;;;;;;;;5014697;28;20452;-79
2022/08/01 07:33:04;;;;;;;32.97;31.07;;;;;;;;;;5014787;28;20419;-79
2022/08/01 07:35:31;;;;;;;32.07;30.03;;;;;;;;;;5014488;28;20435;-82
2022/08/01 07:37:59;;;;;;;32.87;30.83;;;;;;;;;;5014465;28;20892;-82
2022/08/01 07:40:26;;;;;;;33.03;31.13;;;;;;;;;;5014950;28;20466;-82
2022/08/01 07:42:53;;;;;;;29.97;28.27;;;;;;;;;;5014686;28;20450;-81
2022/08/01 07:45:23;;;;;;;27.17;25.80;;;;;;;;;;5013424;28;20466;-85
2022/08/01 07:47:50;;;;;;;27.07;25.73;;;;;;;;;;5013470;28;20426;-84
2022/08/01 07:50:17;;;;;;;26.90;25.60;;;;;;;;;;5015014;28;20466;-85
2022/08/01 07:52:45;;;;;;;26.13;24.93;;;;;;;;;;5015216;28;20437;-84
2022/08/01 07:55:13;;;;;;;27.13;25.93;;;;;;;;;;5014111;28;20426;-86
2022/08/01 07:57:41;;;;;;;26.90;25.60;;;;;;;;;;5013706;28;20465;-83
2022/08/01 08:00:09;;;;;;;24.67;23.60;;;;;;;;;;5014687;28;20440;-84
2022/08/01 08:02:38;;;;;;;26.27;25.07;;;;;;;;;;5014849;28;20754;-82
2022/08/01 08:05:07;;;;;;;23.10;22.20;;;;;;;;;;5014918;28;20454;-83
2022/08/01 08:07:34;;;;;;;22.87;21.87;;;;;;;;;;5014778;28;20796;-83
2022/08/01 08:10:01;;;;;;;22.30;21.40;;;;;;;;;;5013312;28;20949;-83
2022/08/01 08:12:29;;;;;;;21.00;20.10;;;;;;;;;;5014553;28;20439;-83
2022/08/01 08:14:58;;;;;;;20.97;20.17;;;;;;;;;;5014776;28;20439;-83
2022/08/01 08:17:26;;;;;;;21.40;20.13;;;;;;;;;;5014651;28;20533;-83
2022/08/01 08:19:54;;;;;;;21.97;20.87;;;;;;;;;;5014298;28;20459;-82
2022/08/01 08:22:22;;;;;;;19.67;18.87;;;;;;;;;;5013219;28;20430;-83
2022/08/01 08:24:49;;;;;;;19.20;18.43;;;;;;;;;;5014473;28;20450;-83
2022/08/01 08:27:17;;;;;;;19.57;18.67;;;;;;;;;;5014241;28;20483;-85
2022/08/01 08:29:44;;;;;;;19.67;18.87;;;;;;;;;;5014640;28;20879;-84
2022/08/01 08:32:12;;;;;;;20.00;19.20;;;;;;;;;;5014472;28;20468;-87
2022/08/01 08:34:39;;;;;;;19.73;18.83;;;;;;;;;;5014731;28;20415;-83
2022/08/01 08:37:08;;;;;;;19.90;19.00;;;;;;;;;;5014614;28;20428;-85
2022/08/01 08:39:35;;;;;;;19.07;18.20;;;;;;;;;;5014282;28;20462;-85
2022/08/01 08:42:03;;;;;;;19.63;18.63;;;;;;;;;;5014300;28;20426;-83
2022/08/01 08:44:30;;;;;;;19.57;18.70;;;;;;;;;;5014642;28;20406;-87
2022/08/01 08:46:59;;;;;;;19.30;18.50;;;;;;;;;;5014694;28;20882;-88
2022/08/01 08:49:27;;;;;;;19.37;18.57;;;;;;;;;;5014952;28;20444;-89
2022/08/01 08:51:55;;;;;;;19.43;18.57;;;;;;;;;;5015032;28;20435;-87
2022/08/01 08:54:25;;;;;;;19.40;18.50;;;;;;;;;;5015318;28;20421;-89
2022/08/01 08:56:54;;;;;;;20.10;19.20;;;;;;;;;;5016144;28;20523;-89
2022/08/01 08:59:21;;;;;;;19.53;18.57;;;;;;;;;;5016140;28;20443;-89
2022/08/01 09:01:49;;;;;;;19.90;18.90;;;;;;;;;;5014988;28;20533;-89
2022/08/01 09:04:16;;;;;;;18.90;18.00;;;;;;;;;;5014905;28;20888;-89
2022/08/01 09:06:44;;;;;;;19.97;19.07;;;;;;;;;;5014498;28;20833;-88
2022/08/01 09:09:11;;;;;;;18.90;18.10;;;;;;;;;;5014777;28;20961;-89
2022/08/01 09:11:40;;;;;;;19.77;18.87;;;;;;;;;;5014557;28;20902;-89
2022/08/01 09:14:09;;;;;;;19.00;18.20;;;;;;;;;;5014454;28;20418;-89
2022/08/01 09:16:38;;;;;;;20.00;19.20;;;;;;;;;;5014430;28;20411;-88
2022/08/01 09:19:09;;;;;;;19.70;18.80;;;;;;;;;;5014269;28;20972;-92
2022/08/01 09:21:36;;;;;;;19.77;18.87;;;;;;;;;;5014110;28;20411;-83
2022/08/01 09:24:05;;;;;;;18.60;17.80;;;;;;;;;;5012947;28;20447;-89
2022/08/01 09:26:33;;;;;;;19.50;18.40;;;;;;;;;;5014368;28;20500;-92
2022/08/01 09:29:03;;;;;;;18.50;17.60;;;;;;;;;;5013285;28;20986;-90
2022/08/01 09:31:31;;;;;;;18.27;17.47;;;;;;;;;;5014633;28;20440;-90
2022/08/01 09:33:58;;;;;;;18.80;18.00;;;;;;;;;;5013307;28;20943;-82
2022/08/01 09:36:27;;;;;;;18.67;17.77;;;;;;;;;;5013140;28;20415;-82
2022/08/01 09:38:55;;;;;;;18.43;17.63;;;;;;;;;;5013116;28;20457;-82
2022/08/01 09:41:31;;;;;;;19.30;18.30;;;;;;;;;;5013063;28;20471;-82
2022/08/01 09:43:59;;;;;;;18.67;17.77;;;;;;;;;;5011737;28;20561;-87
2022/08/01 09:46:27;;;;;;;18.50;17.70;;;;;;;;;;5016008;28;20840;-91
2022/08/01 09:48:59;;;;;;;19.47;18.07;;;;;;;;;;5015958;28;20452;-92
2022/08/01 09:51:30;;;;;;;18.47;17.33;;;;;;;;;;5016818;28;20463;-92
2022/08/01 09:53:58;;;;;;;18.27;17.47;;;;;;;;;;5017327;28;20414;-90
2022/08/01 09:56:26;;;;;;;19.53;18.30;;;;;;;;;;5018656;28;20555;-96
2022/08/01 09:58:55;;;;;;;18.47;17.67;;;;;;;;;;5027681;28;20430;-83
2022/08/01 10:01:22;;;;;;;18.70;17.70;;;;;;;;;;5032580;28;21016;-82
2022/08/01 10:04:06;;;;;;;20.23;19.23;;;;;;;;;;5032192;28;20862;-79
2022/08/01 10:06:33;;;;;;;20.33;19.33;;;;;;;;;;5030085;28;20468;-82
2022/08/01 10:09:01;;;;;;;19.67;18.57;;;;;;;;;;5012957;28;20436;-81
2022/08/01 10:11:31;;;;;;;17.90;17.10;;;;;;;;;;5015576;28;20453;-81
2022/08/01 10:14:00;;;;;;;18.23;17.43;;;;;;;;;;5015037;28;20463;-84
2022/08/01 10:16:28;;;;;;;17.87;16.97;;;;;;;;;;5016568;28;20468;-83
2022/08/01 10:18:56;;;;;;;18.20;17.33;;;;;;;;;;5016739;28;20430;-83
2022/08/01 10:21:26;;;;;;;18.17;17.37;;;;;;;;;;5016564;28;20444;-82
2022/08/01 10:23:55;;;;;;;18.27;17.37;;;;;;;;;;5016673;28;21045;-83
2022/08/01 10:26:23;;;;;;;19.10;18.20;;;;;;;;;;5015890;28;20500;-83
2022/08/01 10:28:51;;;;;;;18.57;17.67;;;;;;;;;;5016303;28;20444;-82
2022/08/01 10:31:19;;;;;;;19.97;18.87;;;;;;;;;;5016555;28;20443;-83
2022/08/01 10:33:47;;;;;;;19.90;19.00;;;;;;;;;;5016146;28;20889;-83
2022/08/01 10:36:14;;;;;;;20.10;19.20;;;;;;;;;;5016288;28;20432;-83
2022/08/01 10:38:43;;;;;;;19.40;18.50;;;;;;;;;;5016294;28;20440;-82
2022/08/01 10:41:11;;;;;;;18.80;17.97;;;;;;;;;;5016173;28;20452;-83
2022/08/01 10:43:39;;;;;;;19.70;18.80;;;;;;;;;;5016199;28;20445;-82
2022/08/01 10:46:06;;;;;;;18.73;17.83;;;;;;;;;;5016015;28;20494;-82
2022/08/01 10:48:37;;;;;;;19.50;18.50;;;;;;;;;;5016162;28;20448;-82
2022/08/01 10:51:05;;;;;;;19.87;18.87;;;;;;;;;;5016112;28;20452;-83
2022/08/01 10:53:33;;;;;;;19.43;18.53;;;;;;;;;;5016035;28;20445;-82
2022/08/01 10:56:05;;;;;;;19.43;18.53;;;;;;;;;;5015740;28;20468;-81
2022/08/01 10:58:36;;;;;;;19.53;18.30;;;;;;;;;;5015560;28;20890;-82
2022/08/01 11:01:17;;;;;;;19.03;18.13;;;;;;;;;;5015974;28;20444;-83
2022/08/01 11:03:45;;;;;;;19.93;18.93;;;;;;;;;;5016073;28;20805;-81
2022/08/01 11:06:17;;;;;;;20.30;19.10;;;;;;;;;;5014331;28;20818;-79
2022/08/01 11:08:53;;;;;;;20.10;19.10;;;;;;;;;;5015901;28;20440;-83
2022/08/01 11:11:22;;;;;;;19.73;18.73;;;;;;;;;;5015407;28;20431;-81
2022/08/01 11:14:06;;;;;;;20.00;19.00;;;;;;;;;;5015240;28;20450;-82
2022/08/01 11:16:34;;;;;;;18.90;17.90;;;;;;;;;;5015319;28;20482;-82
2022/08/01 11:19:01;;;;;;;19.53;18.53;;;;;;;;;;5015163;28;20443;-81
2022/08/01 11:21:43;;;;;;;19.57;18.57;;;;;;;;;;5015206;28;20475;-82
2022/08/01 11:24:11;;;;;;;21.63;20.10;;;;;;;;;;5014810;28;20437;-81
2022/08/01 11:26:40;;;;;;;19.57;18.37;;;;;;;;;;5014874;28;20510;-82
2022/08/01 11:29:17;;;;;;;18.83;17.93;;;;;;;;;;5014625;28;20447;-82
2022/08/01 11:31:46;;;;;;;19.00;17.90;;;;;;;;;;5014694;28;20448;-82
2022/08/01 11:34:13;;;;;;;19.60;18.50;;;;;;;;;;5014703;28;20455;-82
2022/08/01 11:36:40;;;;;;;19.50;18.50;;;;;;;;;;5015016;28;20475;-82
2022/08/01 11:39:19;;;;;;;19.83;18.80;;;;;;;;;;5013413;28;20517;-80
2022/08/01 11:41:48;;;;;;;19.93;18.93;;;;;;;;;;5013890;28;20482;-82
2022/08/01 11:44:22;;;;;;;19.87;18.67;;;;;;;;;;5015145;28;20440;-81
2022/08/01 11:46:51;;;;;;;19.23;18.23;;;;;;;;;;5014417;28;20549;-82
2022/08/01 11:49:29;;;;;;;19.43;18.43;;;;;;;;;;5013328;28;20452;-81
2022/08/01 11:52:00;;;;;;;19.47;18.47;;;;;;;;;;5014726;28;20498;-82
2022/08/01 11:54:28;;;;;;;19.47;18.43;;;;;;;;;;5014357;28;20419;-81
2022/08/01 11:56:59;;;;;;;19.97;18.87;;;;;;;;;;5014699;28;20476;-82
2022/08/01 11:59:26;;;;;;;19.67;18.67;;;;;;;;;;5014041;28;20523;-82
2022/08/01 12:01:54;;;;;;;20.30;19.20;;;;;;;;;;5014717;28;20467;-83
2022/08/01 12:04:21;;;;;;;19.73;18.63;;;;;;;;;;5014345;28;20885;-83
2022/08/01 12:06:49;;;;;;;19.37;18.47;;;;;;;;;;5013558;28;20469;-83
2022/08/01 12:09:17;;;;;;;20.90;19.50;;;;;;;;;;5014949;28;20462;-84
2022/08/01 12:11:45;;;;;;;20.67;19.67;;;;;;;;;;5014430;28;20444;-81
2022/08/01 12:14:19;;;;;;;20.73;19.73;;;;;;;;;;5014221;28;20450;-82
2022/08/01 12:16:53;;;;;;;20.70;19.70;;;;;;;;;;5014234;28;20478;-82
2022/08/01 12:19:21;;;;;;;21.00;20.00;;;;;;;;;;5013886;28;20483;-81
2022/08/01 12:22:04;;;;;;;22.90;21.47;;;;;;;;;;5014034;28;20468;-82
2022/08/01 12:24:31;;;;;;;21.30;20.23;;;;;;;;;;5014280;28;20504;-83
2022/08/01 12:26:59;;;;;;;21.70;20.50;;;;;;;;;;5014012;28;20508;-84
2022/08/01 12:29:35;;;;;;;21.73;20.40;;;;;;;;;;5013675;28;20441;-83
2022/08/01 12:32:03;;;;;;;23.17;21.97;;;;;;;;;;5014180;28;20444;-83
2022/08/01 12:34:30;;;;;;;21.97;20.97;;;;;;;;;;5013362;28;20523;-82
2022/08/01 12:36:58;;;;;;;23.47;22.07;;;;;;;;;;5014226;28;20445;-83
2022/08/01 12:39:31;;;;;;;22.17;21.07;;;;;;;;;;5013841;28;20452;-84
2022/08/01 12:41:59;;;;;;;22.93;21.53;;;;;;;;;;5014412;28;20925;-83
2022/08/01 12:44:27;;;;;;;22.57;21.40;;;;;;;;;;5013713;28;20447;-83
2022/08/01 12:46:56;;;;;;;22.93;21.70;;;;;;;;;;5014898;28;20818;-87
2022/08/01 12:49:23;;;;;;;23.17;21.90;;;;;;;;;;5015196;28;20445;-85
2022/08/01 12:51:51;;;;;;;24.33;22.93;;;;;;;;;;5014445;28;20719;-86
2022/08/01 12:54:18;;;;;;;23.07;21.67;;;;;;;;;;5014312;28;20463;-84
2022/08/01 12:56:46;;;;;;;23.10;21.70;;;;;;;;;;5014386;28;20448;-85
2022/08/01 12:59:24;;;;;;;24.63;23.13;;;;;;;;;;5014529;28;20438;-85
2022/08/01 13:01:52;;;;;;;24.20;22.70;;;;;;;;;;5014407;28;20505;-85
2022/08/01 13:04:21;;;;;;;24.57;23.27;;;;;;;;;;5014378;28;20409;-85
2022/08/01 13:06:49;;;;;;;26.97;25.20;;;;;;;;;;5014154;28;20483;-85
2022/08/01 13:09:16;;;;;;;26.37;24.77;;;;;;;;;;5014644;28;20426;-85
2022/08/01 13:11:45;;;;;;;25.80;24.33;;;;;;;;;;5013937;28;20421;-85
2022/08/01 13:14:27;;;;;;;25.50;24.10;;;;;;;;;;5012683;28;20526;-85
2022/08/01 13:16:55;;;;;;;25.13;23.50;;;;;;;;;;5014107;28;20451;-85
2022/08/01 13:19:42;;;;;;;25.10;23.77;;;;;;;;;;5013858;28;20414;-84
2022/08/01 13:22:11;;;;;;;23.60;22.30;;;;;;;;;;5013246;28;20486;-83
2022/08/01 13:24:38;;;;;;;22.83;21.53;;;;;;;;;;5013007;28;20429;-84
2022/08/01 13:27:06;;;;;;;24.67;22.87;;;;;;;;;;5012128;28;20474;-83
2022/08/01 13:29:34;;;;;;;24.33;22.93;;;;;;;;;;5013382;28;20917;-83
2022/08/01 13:32:02;;;;;;;23.17;21.77;;;;;;;;;;5013524;28;20414;-84
2022/08/01 13:34:34;;;;;;;24.00;22.60;;;;;;;;;;5013641;28;20458;-84
2022/08/01 13:37:02;;;;;;;23.50;22.20;;;;;;;;;;5013529;28;20460;-84
2022/08/01 13:39:43;;;;;;;25.90;23.63;;;;;;;;;;5013644;28;20498;-86
2022/08/01 13:42:11;;;;;;;25.10;23.30;;;;;;;;;;5012782;28;20449;-84
2022/08/01 13:44:40;;;;;;;24.57;23.07;;;;;;;;;;5015482;28;20419;-82
2022/08/01 13:47:08;;;;;;;22.63;21.27;;;;;;;;;;5017369;28;20495;-84
2022/08/01 13:49:37;;;;;;;23.60;22.20;;;;;;;;;;5018244;28;20449;-85
2022/08/01 13:52:05;;;;;;;22.93;21.70;;;;;;;;;;5016579;28;20518;-85
2022/08/01 13:54:33;;;;;;;23.30;21.80;;;;;;;;;;5017579;28;20465;-86
2022/08/01 13:57:00;;;;;;;23.63;22.23;;;;;;;;;;5017686;28;20415;-86
2022/08/01 13:59:28;;;;;;;24.30;22.50;;;;;;;;;;5016231;28;20539;-85
2022/08/01 14:01:55;;;;;;;23.03;21.63;;;;;;;;;;5017461;28;20431;-85
2022/08/01 14:04:23;;;;;;;24.07;22.50;;;;;;;;;;5017551;28;20434;-85
2022/08/01 14:06:52;;;;;;;21.60;20.40;;;;;;;;;;5017525;28;20415;-85
2022/08/01 14:09:22;;;;;;;23.40;22.00;;;;;;;;;;5017793;28;20455;-87
2022/08/01 14:11:50;;;;;;;21.90;20.70;;;;;;;;;;5017633;28;20447;-87
2022/08/01 14:14:17;;;;;;;22.50;21.20;;;;;;;;;;5016654;28;20419;-88
2022/08/01 14:16:45;;;;;;;23.57;21.97;;;;;;;;;;5017825;28;20422;-87
2022/08/01 14:19:13;;;;;;;22.80;21.10;;;;;;;;;;5017741;28;20449;-87
2022/08/01 14:21:40;;;;;;;21.40;20.13;;;;;;;;;;5017664;28;20479;-87
2022/08/01 14:24:09;;;;;;;21.23;19.93;;;;;;;;;;5017577;28;20455;-88
2022/08/01 14:26:37;;;;;;;21.53;20.33;;;;;;;;;;5017752;28;20465;-87